Time;durP1;ratioP1;P1;durP2;ratioP2;P2;SDS_P1;SDS_P2;PMS_P1;PMS_P2;Temp;Humidity;BMP_temperature;BMP_pressure;BME280_temperature;BME280_humidity;BME280_pressure;Samples;Min_cycle;Max_cycle;Signal;HPM_P1;HPM_P2
2022/07/11 00:01:15;;;;;;;1.75;1.27;;;;;;;;;;4421819;28;21381;-67
2022/07/11 00:03:26;;;;;;;1.25;1.15;;;;;;;;;;4439428;28;20829;-67
2022/07/11 00:05:37;;;;;;;1.52;1.20;;;;;;;;;;4428263;28;20092;-67
2022/07/11 00:07:47;;;;;;;1.58;1.40;;;;;;;;;;4440031;28;20038;-67
2022/07/11 00:09:58;;;;;;;1.30;1.15;;;;;;;;;;4438409;28;20630;-67
2022/07/11 00:12:09;;;;;;;2.85;1.25;;;;;;;;;;4438578;28;20517;-67
2022/07/11 00:14:21;;;;;;;1.42;1.33;;;;;;;;;;4444919;28;20804;-67
2022/07/11 00:16:31;;;;;;;1.30;1.10;;;;;;;;;;4444148;28;20051;-67
2022/07/11 00:18:44;;;;;;;1.85;1.48;;;;;;;;;;4439162;28;20134;-67
2022/07/11 00:20:55;;;;;;;1.85;1.48;;;;;;;;;;4437717;28;20046;-67
2022/07/11 00:23:05;;;;;;;1.60;1.50;;;;;;;;;;4423503;28;20655;-67
2022/07/11 00:25:15;;;;;;;1.73;1.30;;;;;;;;;;4438262;28;20043;-67
2022/07/11 00:27:26;;;;;;;1.88;1.30;;;;;;;;;;4438674;28;20046;-67
2022/07/11 00:29:36;;;;;;;1.55;1.30;;;;;;;;;;4428439;28;20583;-66
2022/07/11 00:31:47;;;;;;;1.55;1.40;;;;;;;;;;4471207;28;20285;-66
2022/07/11 00:33:58;;;;;;;2.13;1.30;;;;;;;;;;4509602;28;20065;-66
2022/07/11 00:36:08;;;;;;;1.45;1.30;;;;;;;;;;4489773;28;20140;-66
2022/07/11 00:38:19;;;;;;;1.40;1.25;;;;;;;;;;4499626;28;20093;-66
2022/07/11 00:40:29;;;;;;;1.60;1.50;;;;;;;;;;4507560;28;20072;-66
2022/07/11 00:42:40;;;;;;;2.45;1.60;;;;;;;;;;4508495;28;20470;-66
2022/07/11 00:44:50;;;;;;;2.55;1.60;;;;;;;;;;4508763;28;20044;-66
2022/07/11 00:47:00;;;;;;;2.88;1.75;;;;;;;;;;4507362;28;20038;-66
2022/07/11 00:49:11;;;;;;;2.40;1.55;;;;;;;;;;4488033;28;20454;-66
2022/07/11 00:51:22;;;;;;;1.70;1.50;;;;;;;;;;4507590;28;20065;-67
2022/07/11 00:53:34;;;;;;;1.90;1.70;;;;;;;;;;4490503;28;20113;-66
2022/07/11 00:55:44;;;;;;;2.17;1.60;;;;;;;;;;4494752;28;20034;-66
2022/07/11 00:57:55;;;;;;;1.88;1.60;;;;;;;;;;4491315;28;20640;-66
2022/07/11 01:00:06;;;;;;;2.65;1.80;;;;;;;;;;4509118;28;21041;-66
2022/07/11 01:02:17;;;;;;;2.03;1.67;;;;;;;;;;4493067;28;20042;-67
2022/07/11 01:04:27;;;;;;;2.25;1.88;;;;;;;;;;4489244;28;20042;-66
2022/07/11 01:06:37;;;;;;;1.90;1.70;;;;;;;;;;4508815;28;20029;-66
2022/07/11 01:08:48;;;;;;;2.13;1.92;;;;;;;;;;4492250;28;20045;-66
2022/07/11 01:11:01;;;;;;;2.58;2.10;;;;;;;;;;4507406;28;20073;-66
2022/07/11 01:13:11;;;;;;;2.78;1.98;;;;;;;;;;4492833;28;20313;-66
2022/07/11 01:15:22;;;;;;;2.25;2.00;;;;;;;;;;4498240;28;20509;-66
2022/07/11 01:17:32;;;;;;;2.20;1.98;;;;;;;;;;4508198;28;20056;-67
2022/07/11 01:19:43;;;;;;;2.10;1.90;;;;;;;;;;4507713;28;20045;-67
2022/07/11 01:21:56;;;;;;;2.38;2.10;;;;;;;;;;4507972;28;20509;-67
2022/07/11 01:24:08;;;;;;;2.28;1.90;;;;;;;;;;4490138;28;20585;-67
2022/07/11 01:26:20;;;;;;;2.03;1.80;;;;;;;;;;4491119;28;20080;-67
2022/07/11 01:28:30;;;;;;;2.92;2.03;;;;;;;;;;4499018;28;20561;-67
2022/07/11 01:30:41;;;;;;;2.70;2.05;;;;;;;;;;4491641;28;20034;-67
2022/07/11 01:32:55;;;;;;;2.53;2.00;;;;;;;;;;4506399;28;20038;-67
2022/07/11 01:35:06;;;;;;;2.53;2.13;;;;;;;;;;4489762;28;20085;-67
2022/07/11 01:37:16;;;;;;;2.58;1.73;;;;;;;;;;4508241;28;20487;-67
2022/07/11 01:39:29;;;;;;;3.17;2.30;;;;;;;;;;4489908;28;20081;-67
2022/07/11 01:41:40;;;;;;;2.30;1.95;;;;;;;;;;4507119;28;20164;-67
2022/07/11 01:43:58;;;;;;;3.05;2.50;;;;;;;;;;4490003;28;20040;-67
2022/07/11 01:46:09;;;;;;;3.70;2.75;;;;;;;;;;4499765;28;20081;-67
2022/07/11 01:48:20;;;;;;;3.67;3.28;;;;;;;;;;4506820;28;20104;-67
2022/07/11 01:50:30;;;;;;;3.65;3.22;;;;;;;;;;4489424;28;20041;-67
2022/07/11 01:52:41;;;;;;;5.45;3.80;;;;;;;;;;4491038;28;20146;-67
2022/07/11 01:54:51;;;;;;;4.97;3.85;;;;;;;;;;4505984;28;20042;-67
2022/07/11 01:57:01;;;;;;;4.65;3.67;;;;;;;;;;4490274;28;20097;-67
2022/07/11 01:59:12;;;;;;;4.68;3.80;;;;;;;;;;4507399;28;20100;-67
2022/07/11 02:01:22;;;;;;;5.05;3.60;;;;;;;;;;4492382;28;25520;-67
2022/07/11 02:03:33;;;;;;;4.00;3.42;;;;;;;;;;4498237;28;20034;-67
2022/07/11 02:05:43;;;;;;;4.50;3.92;;;;;;;;;;4490093;28;20038;-66
2022/07/11 02:08:12;;;;;;;5.10;4.00;;;;;;;;;;4506232;28;20032;-67
2022/07/11 02:10:22;;;;;;;4.78;3.60;;;;;;;;;;4488760;28;20050;-67
2022/07/11 02:12:33;;;;;;;4.32;3.70;;;;;;;;;;4489211;28;20041;-67
2022/07/11 02:14:43;;;;;;;4.55;3.80;;;;;;;;;;4488054;28;20133;-67
2022/07/11 02:16:53;;;;;;;3.95;3.25;;;;;;;;;;4505492;28;20042;-67
2022/07/11 02:19:06;;;;;;;4.50;3.10;;;;;;;;;;4503464;28;20092;-67
2022/07/11 02:21:16;;;;;;;4.22;3.45;;;;;;;;;;4489156;28;20046;-67
2022/07/11 02:23:26;;;;;;;3.58;2.90;;;;;;;;;;4505959;28;20033;-67
2022/07/11 02:25:38;;;;;;;3.85;3.25;;;;;;;;;;4487838;28;20034;-67
2022/07/11 02:27:49;;;;;;;3.75;2.75;;;;;;;;;;4487612;28;20798;-67
2022/07/11 02:30:00;;;;;;;3.45;2.78;;;;;;;;;;4490767;28;20116;-67
2022/07/11 02:32:10;;;;;;;3.92;2.95;;;;;;;;;;4505898;28;20021;-68
2022/07/11 02:34:21;;;;;;;3.28;2.63;;;;;;;;;;4505940;28;20042;-67
2022/07/11 02:36:31;;;;;;;3.80;2.80;;;;;;;;;;4492394;28;20121;-67
2022/07/11 02:38:42;;;;;;;3.05;2.65;;;;;;;;;;4506248;28;20033;-67
2022/07/11 02:40:53;;;;;;;3.08;2.75;;;;;;;;;;4506083;28;20090;-68
2022/07/11 02:43:03;;;;;;;3.13;2.60;;;;;;;;;;4506291;28;20587;-67
2022/07/11 02:45:14;;;;;;;2.88;2.47;;;;;;;;;;4508291;28;20029;-67
2022/07/11 02:47:24;;;;;;;2.80;2.50;;;;;;;;;;4506818;28;20037;-67
2022/07/11 02:49:35;;;;;;;2.60;2.20;;;;;;;;;;4506765;28;20029;-67
2022/07/11 02:51:46;;;;;;;2.40;2.20;;;;;;;;;;4490214;28;20502;-67
2022/07/11 02:53:56;;;;;;;2.97;2.53;;;;;;;;;;4506687;28;20202;-67
2022/07/11 02:56:07;;;;;;;2.78;2.50;;;;;;;;;;4506559;28;20067;-67
2022/07/11 02:58:18;;;;;;;2.55;2.35;;;;;;;;;;4506775;28;20060;-67
2022/07/11 03:00:28;;;;;;;2.50;2.30;;;;;;;;;;4505875;28;20077;-67
2022/07/11 03:02:39;;;;;;;2.85;2.55;;;;;;;;;;4506737;28;20091;-67
2022/07/11 03:04:49;;;;;;;2.85;2.50;;;;;;;;;;4488629;28;20042;-67
2022/07/11 03:07:00;;;;;;;3.00;2.53;;;;;;;;;;4491481;28;20042;-67
2022/07/11 03:09:11;;;;;;;2.72;2.47;;;;;;;;;;4505874;28;20034;-67
2022/07/11 03:11:21;;;;;;;2.90;2.50;;;;;;;;;;4506154;28;20785;-67
2022/07/11 03:13:31;;;;;;;2.80;2.50;;;;;;;;;;4505761;28;20510;-67
2022/07/11 03:15:42;;;;;;;2.70;2.45;;;;;;;;;;4505585;28;20124;-67
2022/07/11 03:17:52;;;;;;;2.80;2.50;;;;;;;;;;4504808;28;20454;-67
2022/07/11 03:20:05;;;;;;;3.15;2.35;;;;;;;;;;4475513;28;20038;-67
2022/07/11 03:22:16;;;;;;;2.58;2.38;;;;;;;;;;4474506;28;20595;-67
2022/07/11 03:24:26;;;;;;;3.03;2.40;;;;;;;;;;4490665;28;20535;-67
2022/07/11 03:26:38;;;;;;;2.95;2.65;;;;;;;;;;4474938;28;20039;-67
2022/07/11 03:28:48;;;;;;;2.30;2.10;;;;;;;;;;4491358;28;20069;-67
2022/07/11 03:30:59;;;;;;;2.40;2.20;;;;;;;;;;4505709;28;20541;-67
2022/07/11 03:33:09;;;;;;;3.58;2.50;;;;;;;;;;4509321;28;20047;-67
2022/07/11 03:37:49;;;;;;;2.40;2.20;;;;;;;;;;4508043;28;20050;-67
2022/07/11 03:40:00;;;;;;;2.35;2.15;;;;;;;;;;4508862;28;20792;-67
2022/07/11 03:42:10;;;;;;;2.38;2.17;;;;;;;;;;4507911;28;20044;-67
2022/07/11 03:44:21;;;;;;;2.67;2.40;;;;;;;;;;4494738;28;20042;-68
2022/07/11 03:46:31;;;;;;;2.22;2.03;;;;;;;;;;4492029;28;20060;-68
2022/07/11 03:48:42;;;;;;;2.92;2.28;;;;;;;;;;4507974;28;21075;-68
2022/07/11 03:50:52;;;;;;;2.45;2.05;;;;;;;;;;4495802;28;20034;-68
2022/07/11 03:53:03;;;;;;;2.25;2.05;;;;;;;;;;4507017;28;20053;-68
2022/07/11 03:55:13;;;;;;;3.08;2.00;;;;;;;;;;4507736;28;20072;-68
2022/07/11 03:57:24;;;;;;;3.10;1.92;;;;;;;;;;4507890;28;20038;-68
2022/07/11 03:59:34;;;;;;;2.67;2.40;;;;;;;;;;4506306;28;20049;-67
2022/07/11 04:01:44;;;;;;;3.47;2.30;;;;;;;;;;4490104;28;20105;-68
2022/07/11 04:03:55;;;;;;;4.28;2.50;;;;;;;;;;4507532;28;20046;-68
2022/07/11 04:06:05;;;;;;;3.17;2.40;;;;;;;;;;4507998;28;20038;-68
2022/07/11 04:08:16;;;;;;;2.58;2.20;;;;;;;;;;4509058;28;20022;-68
2022/07/11 04:10:26;;;;;;;3.90;2.90;;;;;;;;;;4509719;28;20161;-67
2022/07/11 04:12:37;;;;;;;3.67;2.60;;;;;;;;;;4491393;28;20023;-68
2022/07/11 04:14:47;;;;;;;4.22;2.60;;;;;;;;;;4492140;28;20034;-69
2022/07/11 04:16:58;;;;;;;2.83;2.53;;;;;;;;;;4508515;28;20455;-69
2022/07/11 04:19:08;;;;;;;2.78;2.53;;;;;;;;;;4509004;28;20450;-68
2022/07/11 04:21:19;;;;;;;3.55;2.80;;;;;;;;;;4506861;28;20037;-70
2022/07/11 04:23:29;;;;;;;3.20;2.90;;;;;;;;;;4505207;28;20246;-68
2022/07/11 04:25:40;;;;;;;3.88;2.72;;;;;;;;;;4508673;28;20032;-68
2022/07/11 04:27:50;;;;;;;3.20;2.90;;;;;;;;;;4506526;28;20486;-67
2022/07/11 04:30:00;;;;;;;2.85;2.55;;;;;;;;;;4508632;28;20034;-68
2022/07/11 04:32:11;;;;;;;3.60;2.85;;;;;;;;;;4508267;28;20596;-68
2022/07/11 04:34:21;;;;;;;3.00;2.70;;;;;;;;;;4506946;28;20049;-68
2022/07/11 04:36:32;;;;;;;3.00;2.70;;;;;;;;;;4507967;28;20038;-68
2022/07/11 04:38:46;;;;;;;3.22;2.70;;;;;;;;;;4510638;28;20024;-67
2022/07/11 04:40:56;;;;;;;3.20;2.90;;;;;;;;;;4507247;28;20111;-68
2022/07/11 04:43:07;;;;;;;3.55;2.67;;;;;;;;;;4490130;28;20105;-68
2022/07/11 04:45:17;;;;;;;3.58;2.20;;;;;;;;;;4506552;28;20044;-68
2022/07/11 04:47:28;;;;;;;4.18;2.70;;;;;;;;;;4490885;28;20208;-68
2022/07/11 04:49:38;;;;;;;3.38;2.70;;;;;;;;;;4506577;28;20030;-68
2022/07/11 04:51:48;;;;;;;4.00;3.08;;;;;;;;;;4480959;28;20586;-68
2022/07/11 04:53:59;;;;;;;3.03;2.65;;;;;;;;;;4507436;28;20103;-68
2022/07/11 04:56:10;;;;;;;2.90;2.60;;;;;;;;;;4489062;28;20093;-69
2022/07/11 04:58:20;;;;;;;3.42;2.90;;;;;;;;;;4506771;28;20076;-68
2022/07/11 05:00:31;;;;;;;3.25;2.90;;;;;;;;;;4507410;28;20041;-68
2022/07/11 05:02:42;;;;;;;3.22;2.90;;;;;;;;;;4490247;28;20038;-68
2022/07/11 05:04:54;;;;;;;3.97;2.67;;;;;;;;;;4507548;28;20101;-68
2022/07/11 05:07:04;;;;;;;2.97;2.50;;;;;;;;;;4492962;28;20045;-68
2022/07/11 05:09:15;;;;;;;3.83;2.83;;;;;;;;;;4507397;28;20045;-69
2022/07/11 05:11:25;;;;;;;3.70;3.05;;;;;;;;;;4507945;28;20402;-67
2022/07/11 05:13:37;;;;;;;4.45;2.80;;;;;;;;;;4493847;28;20167;-68
2022/07/11 05:15:47;;;;;;;3.30;2.65;;;;;;;;;;4508995;28;20655;-68
2022/07/11 05:17:58;;;;;;;2.78;2.40;;;;;;;;;;4498855;28;20144;-68
2022/07/11 05:20:09;;;;;;;3.60;3.08;;;;;;;;;;4483594;28;20038;-69
2022/07/11 05:22:19;;;;;;;3.13;2.80;;;;;;;;;;4489387;28;20567;-68
2022/07/11 05:24:30;;;;;;;3.40;2.58;;;;;;;;;;4507261;28;20041;-68
2022/07/11 05:26:41;;;;;;;3.28;2.35;;;;;;;;;;4505920;28;20026;-68
2022/07/11 05:28:52;;;;;;;3.83;2.70;;;;;;;;;;4497930;28;20048;-68
2022/07/11 05:31:02;;;;;;;3.53;2.55;;;;;;;;;;4489188;28;20046;-69
2022/07/11 05:33:13;;;;;;;3.72;3.00;;;;;;;;;;4508654;28;20037;-69
2022/07/11 05:35:25;;;;;;;3.00;2.65;;;;;;;;;;4505849;28;20601;-69
2022/07/11 05:37:35;;;;;;;3.15;2.70;;;;;;;;;;4507554;28;20254;-69
2022/07/11 05:39:45;;;;;;;3.50;2.45;;;;;;;;;;4507508;28;20113;-69
2022/07/11 05:41:56;;;;;;;2.80;2.40;;;;;;;;;;4507293;28;20037;-69
2022/07/11 05:44:07;;;;;;;3.13;2.40;;;;;;;;;;4507114;28;20030;-69
2022/07/11 05:46:17;;;;;;;2.47;2.28;;;;;;;;;;4492938;28;20132;-69
2022/07/11 05:48:27;;;;;;;2.65;2.45;;;;;;;;;;4507090;28;20618;-69
2022/07/11 05:50:38;;;;;;;3.08;2.45;;;;;;;;;;4506507;28;20510;-69
2022/07/11 05:52:48;;;;;;;3.72;2.60;;;;;;;;;;4507004;28;20033;-69
2022/07/11 05:54:59;;;;;;;2.75;2.20;;;;;;;;;;4491132;28;20030;-69
2022/07/11 05:57:09;;;;;;;3.15;2.28;;;;;;;;;;4488300;28;20049;-69
2022/07/11 05:59:20;;;;;;;3.22;2.25;;;;;;;;;;4507635;28;20042;-69
2022/07/11 06:01:31;;;;;;;2.67;2.15;;;;;;;;;;4505521;28;20025;-69
2022/07/11 06:03:42;;;;;;;4.10;2.45;;;;;;;;;;4506792;28;20416;-69
2022/07/11 06:05:52;;;;;;;2.50;2.10;;;;;;;;;;4507624;28;20593;-69
2022/07/11 06:10:32;;;;;;;3.08;1.90;;;;;;;;;;4505234;28;20034;-70
2022/07/11 06:12:43;;;;;;;2.38;2.00;;;;;;;;;;4506918;28;20038;-69
2022/07/11 06:14:54;;;;;;;1.92;1.70;;;;;;;;;;4505729;28;20034;-70
2022/07/11 06:17:04;;;;;;;1.92;1.55;;;;;;;;;;4505220;28;20070;-70
2022/07/11 06:19:15;;;;;;;1.55;1.45;;;;;;;;;;4491698;28;20038;-62
2022/07/11 06:21:25;;;;;;;1.98;1.50;;;;;;;;;;4490829;28;20077;-62
2022/07/11 06:23:36;;;;;;;1.75;1.48;;;;;;;;;;4491721;28;20701;-62
2022/07/11 06:25:47;;;;;;;2.00;1.50;;;;;;;;;;4477415;28;20550;-61
2022/07/11 06:27:57;;;;;;;1.85;1.45;;;;;;;;;;4506780;28;20137;-61
2022/07/11 06:30:08;;;;;;;1.40;1.30;;;;;;;;;;4507180;28;20034;-61
2022/07/11 06:32:18;;;;;;;1.95;1.20;;;;;;;;;;4506153;28;20869;-62
2022/07/11 06:34:29;;;;;;;1.65;1.50;;;;;;;;;;4506367;28;20029;-62
2022/07/11 06:36:39;;;;;;;2.67;1.40;;;;;;;;;;4505278;28;20030;-62
2022/07/11 06:38:50;;;;;;;2.47;1.40;;;;;;;;;;4506351;28;20116;-62
2022/07/11 06:41:01;;;;;;;1.95;1.40;;;;;;;;;;4489249;28;20610;-62
2022/07/11 06:43:11;;;;;;;1.67;1.30;;;;;;;;;;4506843;28;20109;-62
2022/07/11 06:45:22;;;;;;;1.30;1.20;;;;;;;;;;4492683;28;20154;-63
2022/07/11 06:47:33;;;;;;;1.10;1.00;;;;;;;;;;4506220;28;20620;-62
2022/07/11 06:49:43;;;;;;;1.45;1.00;;;;;;;;;;4506139;28;20726;-63
2022/07/11 06:51:54;;;;;;;1.48;1.33;;;;;;;;;;4505153;28;20064;-63
2022/07/11 06:54:04;;;;;;;1.55;1.25;;;;;;;;;;4505284;28;20478;-62
2022/07/11 06:56:15;;;;;;;1.70;1.10;;;;;;;;;;4507367;28;20046;-62
2022/07/11 06:58:34;;;;;;;1.23;1.10;;;;;;;;;;4506545;28;20042;-62
2022/07/11 07:00:45;;;;;;;1.15;0.90;;;;;;;;;;4490246;28;20133;-62
2022/07/11 07:02:58;;;;;;;1.00;0.90;;;;;;;;;;4505583;28;20042;-62
2022/07/11 07:05:09;;;;;;;1.25;1.10;;;;;;;;;;4508359;28;21057;-62
2022/07/11 07:07:20;;;;;;;1.20;1.10;;;;;;;;;;4483876;28;20093;-64
2022/07/11 07:09:31;;;;;;;1.23;0.90;;;;;;;;;;4507487;28;20121;-63
2022/07/11 07:11:41;;;;;;;2.35;1.00;;;;;;;;;;4492834;28;20384;-62
2022/07/11 07:13:52;;;;;;;1.20;1.00;;;;;;;;;;4509058;28;20033;-62
2022/07/11 07:16:04;;;;;;;1.50;1.00;;;;;;;;;;4507343;28;20072;-62
2022/07/11 07:18:14;;;;;;;1.20;0.93;;;;;;;;;;4501238;28;20621;-62
2022/07/11 07:20:25;;;;;;;1.33;0.70;;;;;;;;;;4508712;28;20042;-62
2022/07/11 07:22:36;;;;;;;1.00;0.82;;;;;;;;;;4509657;28;20052;-62
2022/07/11 07:24:46;;;;;;;1.17;0.90;;;;;;;;;;4510494;28;20513;-65
2022/07/11 07:26:56;;;;;;;1.05;0.88;;;;;;;;;;4508831;28;20038;-61
2022/07/11 07:29:07;;;;;;;1.92;1.05;;;;;;;;;;4493813;28;20034;-62
2022/07/11 07:31:17;;;;;;;1.00;1.00;;;;;;;;;;4492498;28;20577;-62
2022/07/11 07:33:28;;;;;;;1.13;0.88;;;;;;;;;;4491815;28;20014;-62
2022/07/11 07:35:39;;;;;;;1.35;1.00;;;;;;;;;;4509403;28;20086;-61
2022/07/11 07:37:49;;;;;;;1.10;0.90;;;;;;;;;;4508704;28;20068;-61
2022/07/11 07:40:00;;;;;;;1.42;0.90;;;;;;;;;;4508204;28;20521;-61
2022/07/11 07:42:10;;;;;;;2.13;0.90;;;;;;;;;;4509027;28;20084;-62
2022/07/11 07:44:21;;;;;;;1.83;1.02;;;;;;;;;;4507870;28;20475;-61
2022/07/11 07:46:31;;;;;;;1.00;0.90;;;;;;;;;;4507996;28;20105;-61
2022/07/11 07:48:42;;;;;;;1.20;0.80;;;;;;;;;;4507822;28;20038;-62
2022/07/11 07:50:53;;;;;;;0.93;0.70;;;;;;;;;;4507358;28;20030;-62
2022/07/11 07:53:04;;;;;;;0.90;0.80;;;;;;;;;;4508237;28;20083;-62
2022/07/11 07:55:14;;;;;;;0.85;0.80;;;;;;;;;;4509220;28;20543;-62
2022/07/11 07:57:25;;;;;;;0.82;0.80;;;;;;;;;;4507759;28;20050;-62
2022/07/11 07:59:35;;;;;;;1.30;0.82;;;;;;;;;;4508725;28;20044;-61
2022/07/11 08:01:47;;;;;;;1.15;0.73;;;;;;;;;;4509525;28;20044;-61
2022/07/11 08:03:57;;;;;;;1.67;0.70;;;;;;;;;;4506646;28;20545;-61
2022/07/11 08:06:08;;;;;;;0.93;0.80;;;;;;;;;;4507350;28;20056;-61
2022/07/11 08:08:18;;;;;;;1.10;0.82;;;;;;;;;;4507876;28;20048;-62
2022/07/11 08:10:29;;;;;;;1.08;0.80;;;;;;;;;;4508293;28;20112;-61
2022/07/11 08:12:39;;;;;;;0.98;0.70;;;;;;;;;;4492526;28;20604;-61
2022/07/11 08:14:49;;;;;;;0.77;0.60;;;;;;;;;;4508065;28;20100;-62
2022/07/11 08:17:00;;;;;;;1.77;0.70;;;;;;;;;;4506974;28;20045;-62
2022/07/11 08:19:11;;;;;;;0.70;0.60;;;;;;;;;;4508991;28;20041;-61
2022/07/11 08:21:22;;;;;;;0.90;0.60;;;;;;;;;;4495772;28;20030;-61
2022/07/11 08:23:32;;;;;;;0.80;0.60;;;;;;;;;;4508626;28;20073;-60
2022/07/11 08:25:43;;;;;;;0.50;0.50;;;;;;;;;;4507903;28;20131;-61
2022/07/11 08:27:53;;;;;;;0.63;0.40;;;;;;;;;;4508099;28;20030;-61
2022/07/11 08:30:06;;;;;;;0.88;0.50;;;;;;;;;;4508409;28;20048;-61
2022/07/11 08:32:16;;;;;;;0.50;0.50;;;;;;;;;;4498708;28;21138;-61
2022/07/11 08:34:27;;;;;;;0.85;0.50;;;;;;;;;;4490518;28;20128;-61
2022/07/11 08:36:37;;;;;;;0.50;0.50;;;;;;;;;;4507680;28;20560;-61
2022/07/11 08:38:48;;;;;;;0.50;0.50;;;;;;;;;;4490481;28;20526;-61
2022/07/11 08:40:58;;;;;;;0.47;0.47;;;;;;;;;;4494591;28;20522;-61
2022/07/11 08:43:16;;;;;;;0.63;0.57;;;;;;;;;;4507459;28;20088;-61
2022/07/11 08:45:30;;;;;;;1.15;0.50;;;;;;;;;;4506966;28;20173;-61
2022/07/11 08:47:42;;;;;;;0.88;0.60;;;;;;;;;;4506580;28;20040;-61
2022/07/11 08:49:52;;;;;;;1.38;0.50;;;;;;;;;;4505218;28;20041;-61
2022/07/11 08:52:03;;;;;;;0.57;0.38;;;;;;;;;;4492060;28;20026;-61
2022/07/11 08:54:13;;;;;;;1.20;0.57;;;;;;;;;;4482237;28;20105;-61
2022/07/11 08:56:26;;;;;;;0.85;0.52;;;;;;;;;;4507938;28;20092;-61
2022/07/11 08:58:37;;;;;;;0.40;0.40;;;;;;;;;;4489769;28;21060;-61
2022/07/11 09:00:48;;;;;;;0.50;0.50;;;;;;;;;;4506557;28;20056;-62
2022/07/11 09:03:00;;;;;;;0.63;0.50;;;;;;;;;;4508171;28;20387;-61
2022/07/11 09:05:11;;;;;;;1.40;0.70;;;;;;;;;;4506109;28;20030;-62
2022/07/11 09:07:21;;;;;;;0.73;0.40;;;;;;;;;;4506739;28;20034;-61
2022/07/11 09:09:32;;;;;;;0.47;0.47;;;;;;;;;;4493960;28;20395;-60
2022/07/11 09:11:50;;;;;;;0.47;0.47;;;;;;;;;;4494093;28;20400;-61
2022/07/11 09:14:00;;;;;;;1.00;0.60;;;;;;;;;;4505828;28;20025;-61
2022/07/11 09:16:11;;;;;;;0.63;0.40;;;;;;;;;;4489061;28;20046;-61
2022/07/11 09:18:36;;;;;;;0.60;0.50;;;;;;;;;;4506786;28;20046;-61
2022/07/11 09:26:12;;;;;;;0.57;0.57;;;;;;;;;;4495116;28;20037;-61
2022/07/11 09:28:23;;;;;;;0.60;0.60;;;;;;;;;;4506061;28;20038;-60
2022/07/11 09:30:35;;;;;;;0.60;0.60;;;;;;;;;;4505827;28;20037;-61
2022/07/11 09:32:59;;;;;;;0.55;0.55;;;;;;;;;;4508167;28;20030;-60
2022/07/11 09:35:11;;;;;;;1.05;0.65;;;;;;;;;;4492116;28;20636;-60
2022/07/11 09:37:41;;;;;;;0.60;0.60;;;;;;;;;;4488127;28;21383;-60
2022/07/11 09:40:09;;;;;;;0.77;0.63;;;;;;;;;;4507028;28;20655;-63
2022/07/11 09:42:20;;;;;;;0.98;0.63;;;;;;;;;;4494142;28;20038;-63
2022/07/11 09:44:33;;;;;;;0.60;0.60;;;;;;;;;;4506135;28;20512;-64
2022/07/11 09:46:46;;;;;;;1.10;0.70;;;;;;;;;;4487690;28;20563;-65
2022/07/11 09:48:56;;;;;;;0.70;0.70;;;;;;;;;;4496914;28;20037;-64
2022/07/11 09:51:06;;;;;;;0.80;0.80;;;;;;;;;;4506861;28;20037;-64
2022/07/11 09:53:17;;;;;;;0.77;0.70;;;;;;;;;;4489067;28;20072;-63
2022/07/11 09:55:29;;;;;;;0.80;0.80;;;;;;;;;;4487639;28;20503;-65
2022/07/11 09:57:40;;;;;;;0.80;0.70;;;;;;;;;;4505688;28;20057;-64
2022/07/11 09:59:54;;;;;;;1.63;0.80;;;;;;;;;;4505031;28;20477;-64
2022/07/11 10:02:05;;;;;;;1.27;0.70;;;;;;;;;;4505502;28;21212;-65
2022/07/11 10:04:16;;;;;;;0.85;0.82;;;;;;;;;;4504611;28;20061;-64
2022/07/11 10:06:27;;;;;;;1.30;1.00;;;;;;;;;;4505821;28;20589;-66
2022/07/11 10:08:37;;;;;;;2.05;0.90;;;;;;;;;;4506430;28;20676;-64
2022/07/11 10:10:49;;;;;;;1.00;0.90;;;;;;;;;;4490565;28;20112;-64
2022/07/11 10:12:59;;;;;;;0.70;0.68;;;;;;;;;;4491068;28;20026;-63
2022/07/11 10:15:10;;;;;;;0.80;0.80;;;;;;;;;;4506376;28;20021;-64
2022/07/11 10:17:39;;;;;;;1.00;0.80;;;;;;;;;;4489533;28;20047;-64
2022/07/11 10:20:11;;;;;;;0.75;0.75;;;;;;;;;;4498824;28;20045;-64
2022/07/11 10:22:34;;;;;;;1.10;0.60;;;;;;;;;;4508767;28;20518;-65
2022/07/11 10:24:45;;;;;;;0.70;0.70;;;;;;;;;;4494890;28;20105;-64
2022/07/11 10:27:02;;;;;;;0.57;0.57;;;;;;;;;;4507353;28;20124;-65
2022/07/11 10:29:37;;;;;;;0.50;0.50;;;;;;;;;;4494301;28;20038;-64
2022/07/11 10:32:05;;;;;;;0.68;0.60;;;;;;;;;;4499745;28;20511;-63
2022/07/11 10:34:18;;;;;;;0.90;0.70;;;;;;;;;;4491301;28;20050;-64
2022/07/11 10:36:30;;;;;;;0.75;0.70;;;;;;;;;;4508576;28;20653;-65
2022/07/11 10:39:26;;;;;;;1.02;0.60;;;;;;;;;;4507323;28;20056;-65
2022/07/11 10:41:38;;;;;;;1.33;0.70;;;;;;;;;;4508840;28;20117;-65
2022/07/11 10:43:48;;;;;;;0.75;0.60;;;;;;;;;;4508686;28;20030;-64
2022/07/11 10:46:00;;;;;;;0.43;0.43;;;;;;;;;;4507938;28;20033;-64
2022/07/11 10:48:11;;;;;;;0.90;0.70;;;;;;;;;;4483145;28;20039;-64
2022/07/11 10:50:21;;;;;;;0.80;0.70;;;;;;;;;;4508890;28;20080;-65
2022/07/11 10:52:34;;;;;;;0.60;0.60;;;;;;;;;;4507451;28;20107;-65
2022/07/11 10:54:44;;;;;;;0.70;0.60;;;;;;;;;;4493375;28;20513;-63
2022/07/11 10:57:04;;;;;;;0.57;0.57;;;;;;;;;;4498692;28;20097;-63
2022/07/11 10:59:17;;;;;;;0.80;0.55;;;;;;;;;;4492111;28;20639;-63
2022/07/11 11:01:27;;;;;;;0.70;0.70;;;;;;;;;;4490031;28;20034;-64
2022/07/11 11:03:39;;;;;;;0.73;0.60;;;;;;;;;;4507530;28;20033;-63
2022/07/11 11:05:54;;;;;;;0.70;0.70;;;;;;;;;;4488579;28;20137;-64
2022/07/11 11:08:30;;;;;;;0.73;0.65;;;;;;;;;;4487296;28;20038;-64
2022/07/11 11:10:44;;;;;;;1.52;0.80;;;;;;;;;;4507429;28;20771;-65
2022/07/11 11:13:04;;;;;;;1.20;0.95;;;;;;;;;;4507651;28;20182;-64
2022/07/11 11:15:33;;;;;;;1.20;0.70;;;;;;;;;;4507784;28;20042;-64
2022/07/11 11:17:44;;;;;;;0.63;0.60;;;;;;;;;;4492429;28;20057;-63
2022/07/11 11:19:55;;;;;;;0.70;0.70;;;;;;;;;;4495448;28;20789;-64
2022/07/11 11:22:13;;;;;;;0.80;0.80;;;;;;;;;;4509009;28;20932;-65
2022/07/11 11:24:23;;;;;;;1.00;0.80;;;;;;;;;;4489400;28;20038;-65
2022/07/11 11:26:49;;;;;;;0.82;0.80;;;;;;;;;;4489270;28;20034;-65
2022/07/11 11:29:01;;;;;;;0.93;0.80;;;;;;;;;;4508464;28;21323;-65
2022/07/11 11:31:12;;;;;;;0.95;0.85;;;;;;;;;;4505966;28;20081;-65
2022/07/11 11:33:25;;;;;;;0.80;0.80;;;;;;;;;;4509803;28;20041;-64
2022/07/11 11:35:36;;;;;;;0.82;0.70;;;;;;;;;;4490457;28;20026;-65
2022/07/11 11:37:47;;;;;;;0.70;0.70;;;;;;;;;;4506727;28;20600;-65
2022/07/11 11:39:59;;;;;;;1.17;0.82;;;;;;;;;;4497944;28;20185;-65
2022/07/11 11:42:19;;;;;;;0.80;0.63;;;;;;;;;;4506389;28;20034;-66
2022/07/11 11:44:31;;;;;;;1.17;0.70;;;;;;;;;;4490601;28;20730;-66
2022/07/11 11:46:41;;;;;;;0.70;0.70;;;;;;;;;;4488925;28;20039;-66
2022/07/11 11:48:59;;;;;;;1.00;0.65;;;;;;;;;;4495014;28;20527;-65
2022/07/11 11:51:12;;;;;;;0.88;0.63;;;;;;;;;;4508370;28;20063;-66
2022/07/11 11:53:25;;;;;;;0.82;0.77;;;;;;;;;;4493148;28;20620;-66
2022/07/11 11:55:36;;;;;;;0.80;0.80;;;;;;;;;;4491875;28;20042;-66
2022/07/11 11:57:47;;;;;;;0.93;0.70;;;;;;;;;;4495833;28;20041;-66
2022/07/11 11:59:57;;;;;;;0.75;0.75;;;;;;;;;;4509337;28;20042;-66
2022/07/11 12:02:08;;;;;;;1.02;0.90;;;;;;;;;;4509674;28;20025;-66
2022/07/11 12:04:19;;;;;;;1.10;1.00;;;;;;;;;;4494167;28;20034;-65
2022/07/11 12:06:32;;;;;;;1.45;1.20;;;;;;;;;;4509975;28;20034;-65
2022/07/11 12:08:42;;;;;;;1.13;0.90;;;;;;;;;;4508562;28;20120;-64
2022/07/11 12:10:54;;;;;;;0.95;0.90;;;;;;;;;;4510696;28;20398;-65
2022/07/11 12:13:05;;;;;;;1.83;1.10;;;;;;;;;;4511341;28;20044;-65
2022/07/11 12:15:26;;;;;;;1.80;1.30;;;;;;;;;;4510941;28;20395;-64
2022/07/11 12:17:37;;;;;;;1.50;1.40;;;;;;;;;;4495512;28;20053;-65
2022/07/11 12:19:47;;;;;;;1.50;1.40;;;;;;;;;;4509539;28;20478;-65
2022/07/11 12:21:59;;;;;;;1.83;1.73;;;;;;;;;;4491766;28;20039;-64
2022/07/11 12:24:22;;;;;;;2.20;2.00;;;;;;;;;;4484242;28;20524;-64
2022/07/11 12:26:34;;;;;;;2.20;2.00;;;;;;;;;;4497838;28;20070;-65
2022/07/11 12:29:05;;;;;;;2.28;1.63;;;;;;;;;;4479845;28;20029;-64
2022/07/11 12:31:15;;;;;;;1.90;1.80;;;;;;;;;;4508601;28;20777;-64
2022/07/11 12:33:26;;;;;;;1.65;1.55;;;;;;;;;;4509589;28;20038;-64
2022/07/11 12:35:36;;;;;;;1.50;1.40;;;;;;;;;;4508889;28;20037;-64
2022/07/11 12:37:47;;;;;;;1.50;1.40;;;;;;;;;;4492080;28;20049;-64
2022/07/11 12:40:00;;;;;;;1.40;1.30;;;;;;;;;;4509466;28;20043;-64
2022/07/11 12:42:20;;;;;;;1.33;1.23;;;;;;;;;;4493285;28;20022;-64
2022/07/11 12:47:03;;;;;;;1.40;1.25;;;;;;;;;;4494175;28;20209;-64
2022/07/11 12:49:15;;;;;;;1.85;0.93;;;;;;;;;;4509081;28;20047;-64
2022/07/11 12:51:39;;;;;;;0.75;0.60;;;;;;;;;;4510975;28;20041;-65
2022/07/11 12:53:49;;;;;;;0.70;0.60;;;;;;;;;;4509953;28;20638;-65
2022/07/11 12:55:59;;;;;;;0.52;0.52;;;;;;;;;;4495436;28;20099;-63
2022/07/11 12:58:18;;;;;;;0.50;0.50;;;;;;;;;;4509007;28;20565;-65
2022/07/11 13:00:30;;;;;;;0.50;0.50;;;;;;;;;;4500812;28;20049;-65
2022/07/11 13:02:40;;;;;;;0.57;0.50;;;;;;;;;;4500117;28;20038;-65
2022/07/11 13:04:51;;;;;;;0.70;0.60;;;;;;;;;;4509720;28;20033;-66
2022/07/11 13:10:00;;;;;;;0.60;0.60;;;;;;;;;;4467503;28;20046;-66
2022/07/11 13:12:11;;;;;;;0.60;0.60;;;;;;;;;;4508929;28;20068;-66
2022/07/11 13:16:51;;;;;;;0.50;0.50;;;;;;;;;;4508296;28;20667;-65
2022/07/11 13:19:01;;;;;;;0.85;0.40;;;;;;;;;;4506776;28;20060;-66
2022/07/11 13:21:12;;;;;;;0.50;0.50;;;;;;;;;;4509290;28;20087;-65
2022/07/11 13:23:23;;;;;;;0.50;0.50;;;;;;;;;;4496037;28;20081;-64
2022/07/11 13:25:34;;;;;;;0.60;0.60;;;;;;;;;;4509454;28;20099;-65
2022/07/11 13:27:45;;;;;;;0.60;0.57;;;;;;;;;;4491514;28;20035;-65
2022/07/11 13:29:56;;;;;;;0.60;0.60;;;;;;;;;;4480558;28;20023;-66